Time;durP1;ratioP1;P1;durP2;ratioP2;P2;SDS_P1;SDS_P2;PMS_P1;PMS_P2;Temp;Humidity;BMP_temperature;BMP_pressure;BME280_temperature;BME280_humidity;BME280_pressure;Samples;Min_cycle;Max_cycle;Signal;HPM_P1;HPM_P2
2021/03/15 00:01:35;;;;;;;43.60;31.40;;;;;;;9.48;61.24;93498.28;4229527;28;20464;-71
2021/03/15 00:03:38;;;;;;;42.40;30.45;;;;;;;9.36;62.32;93497.94;4217225;27;20051;-71
2021/03/15 00:05:40;;;;;;;41.65;30.77;;;;;;;9.06;63.21;93484.06;4233919;27;20047;-70
2021/03/15 00:07:41;;;;;;;44.17;30.00;;;;;;;9.07;63.13;93487.47;4199881;28;20049;-71
2021/03/15 00:09:42;;;;;;;40.33;29.88;;;;;;;9.17;62.03;93493.25;4213469;28;20100;-72
2021/03/15 00:11:44;;;;;;;42.00;30.38;;;;;;;9.30;62.52;93498.66;4221615;27;20043;-71
2021/03/15 00:13:45;;;;;;;38.70;28.75;;;;;;;9.41;62.20;93497.41;4243530;27;20057;-70
2021/03/15 00:15:49;;;;;;;42.75;29.48;;;;;;;9.48;61.52;93481.78;4244497;27;20778;-71
2021/03/15 00:17:51;;;;;;;40.67;29.27;;;;;;;9.43;61.50;93470.06;4231132;27;20047;-72
2021/03/15 00:19:52;;;;;;;41.13;30.42;;;;;;;9.18;62.34;93458.28;4215217;28;20048;-71
2021/03/15 00:21:54;;;;;;;43.03;30.38;;;;;;;9.05;62.88;93469.38;4224404;28;20542;-70
2021/03/15 00:23:55;;;;;;;41.05;30.17;;;;;;;9.15;62.17;93485.59;4200509;28;20052;-72
2021/03/15 00:25:56;;;;;;;47.67;32.75;;;;;;;9.26;62.27;93471.25;4235244;27;20143;-71
2021/03/15 00:27:58;;;;;;;47.45;32.13;;;;;;;9.06;62.60;93462.34;4230760;27;20397;-72
2021/03/15 00:29:59;;;;;;;45.10;31.27;;;;;;;9.06;62.90;93493.72;4199656;28;20051;-71
2021/03/15 00:32:01;;;;;;;44.40;32.75;;;;;;;9.16;62.73;93481.16;4220190;27;20047;-70
2021/03/15 00:34:02;;;;;;;46.30;31.75;;;;;;;9.29;62.00;93473.53;4219062;28;20107;-71
2021/03/15 00:36:04;;;;;;;44.20;32.17;;;;;;;9.27;61.88;93465.06;4228993;28;20055;-71
2021/03/15 00:38:06;;;;;;;42.72;31.52;;;;;;;8.90;62.96;93445.84;4240399;27;20051;-69
2021/03/15 00:40:12;;;;;;;42.70;31.50;;;;;;;8.94;63.20;93472.44;4238670;27;20054;-71
2021/03/15 00:42:13;;;;;;;45.47;30.65;;;;;;;9.01;62.58;93462.88;4225253;28;20043;-72
2021/03/15 00:44:15;;;;;;;47.15;32.33;;;;;;;9.15;62.60;93469.91;4225104;27;20062;-72
2021/03/15 00:46:16;;;;;;;45.00;31.17;;;;;;;9.17;61.97;93456.69;4234652;27;20059;-70
2021/03/15 00:48:17;;;;;;;48.45;30.30;;;;;;;8.88;63.40;93453.03;4222273;28;20052;-70
2021/03/15 00:50:24;;;;;;;43.42;31.25;;;;;;;8.87;63.55;93448.81;4219762;28;20051;-72
2021/03/15 00:52:25;;;;;;;39.92;29.67;;;;;;;8.65;64.80;93428.81;4229537;28;20051;-71
2021/03/15 00:54:26;;;;;;;45.40;31.60;;;;;;;8.70;64.93;93436.94;4240996;27;20414;-71
2021/03/15 00:56:27;;;;;;;41.90;30.20;;;;;;;8.43;65.62;93426.06;4245426;27;20051;-72
2021/03/15 00:58:28;;;;;;;45.53;29.77;;;;;;;8.51;65.34;93435.63;4238577;27;20058;-72
2021/03/15 01:00:32;;;;;;;44.97;31.05;;;;;;;8.67;65.53;93425.06;4219017;28;20457;-71
2021/03/15 01:02:34;;;;;;;44.40;31.45;;;;;;;8.79;64.91;93422.78;4224328;28;20498;-71
2021/03/15 01:04:35;;;;;;;46.38;31.75;;;;;;;8.85;65.11;93422.09;4209639;28;22322;-71
2021/03/15 01:06:36;;;;;;;46.10;30.20;;;;;;;8.91;65.44;93418.75;4228956;28;20116;-70
2021/03/15 01:08:39;;;;;;;43.97;31.20;;;;;;;8.81;65.34;93400.72;4225842;28;20044;-71
2021/03/15 01:10:42;;;;;;;38.38;28.55;;;;;;;8.61;66.32;93395.22;4210781;28;20457;-71
2021/03/15 01:12:45;;;;;;;39.95;29.38;;;;;;;8.54;66.61;93394.34;4209454;28;20563;-71
2021/03/15 01:14:46;;;;;;;40.85;28.95;;;;;;;8.66;66.43;93401.72;4214420;28;20131;-71
2021/03/15 01:16:47;;;;;;;41.03;29.35;;;;;;;8.74;66.81;93396.44;4227971;28;20062;-71
2021/03/15 01:18:48;;;;;;;40.45;29.02;;;;;;;8.87;66.25;93395.78;4227782;28;20055;-71
2021/03/15 01:20:50;;;;;;;37.35;28.30;;;;;;;8.99;65.82;93381.28;4227638;28;20096;-72
2021/03/15 01:22:54;;;;;;;40.35;29.27;;;;;;;8.74;66.72;93376.34;4210525;28;20047;-72
2021/03/15 01:24:55;;;;;;;;;;;;;;;8.55;66.73;93372.47;4204914;28;20056;-71
2021/03/15 01:26:57;;;;;;;40.17;29.42;;;;;;;8.65;66.60;93389.66;4204011;28;19924;-71
2021/03/15 01:28:59;;;;;;;45.78;29.60;;;;;;;8.81;66.26;93389.47;4227571;27;20059;-72
2021/03/15 01:31:00;;;;;;;39.92;28.98;;;;;;;8.93;66.56;93387.25;4215382;28;20047;-71
2021/03/15 01:33:02;;;;;;;41.72;29.45;;;;;;;8.88;65.44;93364.25;4243031;27;20051;-70
2021/03/15 01:35:05;;;;;;;41.45;30.48;;;;;;;9.00;65.82;93373.25;4215061;27;20052;-72
2021/03/15 01:37:06;;;;;;;42.30;29.77;;;;;;;8.84;65.65;93356.97;4221751;28;20051;-71
2021/03/15 01:39:08;;;;;;;42.22;29.92;;;;;;;8.74;66.56;93365.09;4225871;27;20070;-71
2021/03/15 01:41:09;;;;;;;41.72;29.98;;;;;;;8.82;66.56;93375.44;4245399;27;20460;-71
2021/03/15 01:43:10;;;;;;;41.42;27.65;;;;;;;8.97;65.78;93373.63;4212910;28;20048;-71
2021/03/15 01:45:12;;;;;;;37.80;27.95;;;;;;;9.06;65.50;93355.25;4206919;28;20054;-72
2021/03/15 01:47:13;;;;;;;38.28;27.38;;;;;;;8.98;66.24;93343.09;4210155;28;20044;-72
2021/03/15 01:49:15;;;;;;;37.22;27.83;;;;;;;9.08;66.33;93355.84;4223176;28;20065;-71
2021/03/15 01:51:16;;;;;;;37.13;26.40;;;;;;;9.18;66.08;93338.09;4226870;28;20036;-71
2021/03/15 01:53:19;;;;;;;39.15;27.50;;;;;;;9.24;65.95;93332.13;4211871;28;20479;-73
2021/03/15 01:55:21;;;;;;;36.30;26.83;;;;;;;9.33;65.15;93330.22;4214076;28;20094;-71
2021/03/15 01:57:22;;;;;;;39.00;28.67;;;;;;;9.27;65.64;93326.56;4218203;28;20044;-71
2021/03/15 01:59:24;;;;;;;38.28;28.05;;;;;;;9.31;65.37;93327.78;4209271;28;20079;-71
2021/03/15 02:01:26;;;;;;;37.70;29.80;;;;;;;9.26;65.22;93321.50;4208151;28;20052;-71
2021/03/15 02:03:28;;;;;;;36.53;26.88;;;;;;;9.15;65.84;93317.56;4213172;28;20505;-71
2021/03/15 02:05:29;;;;;;;35.50;26.88;;;;;;;9.21;65.31;93306.38;4216580;28;20105;-70
2021/03/15 02:07:31;;;;;;;38.83;26.90;;;;;;;9.20;65.26;93308.16;4217086;28;20048;-71
2021/03/15 02:09:32;;;;;;;37.53;27.33;;;;;;;9.21;65.69;93311.63;4226425;28;20468;-71
2021/03/15 02:11:58;;;;;;;36.03;26.05;;;;;;;9.23;65.57;93320.09;4226590;28;20044;-71
2021/03/15 02:14:24;;;;;;;36.30;26.63;;;;;;;9.29;65.31;93314.13;4211088;28;20074;-72
2021/03/15 02:16:41;;;;;;;38.33;26.92;;;;;;;8.88;66.87;93296.34;4233072;28;20116;-72
2021/03/15 02:18:55;;;;;;;36.17;24.67;;;;;;;8.69;67.42;93289.94;4225671;28;20387;-71
2021/03/15 02:21:33;;;;;;;39.13;26.13;;;;;;;8.77;67.37;93304.66;4209467;28;20059;-72
2021/03/15 02:24:22;;;;;;;36.22;27.63;;;;;;;8.99;66.88;93303.75;4226426;28;20054;-72
2021/03/15 02:26:32;;;;;;;36.00;27.27;;;;;;;8.94;67.27;93287.78;4213459;28;20058;-70
2021/03/15 02:28:59;;;;;;;34.60;27.20;;;;;;;9.02;66.83;93307.78;4225721;28;20052;-72
2021/03/15 02:34:16;;;;;;;34.92;28.70;;;;;;;9.14;66.65;93292.44;4224777;28;20034;-71
2021/03/15 02:36:19;;;;;;;41.83;27.38;;;;;;;9.17;66.42;93289.47;4193333;28;20107;-85
2021/03/15 02:38:22;;;;;;;38.28;28.50;;;;;;;8.80;67.64;93267.75;4227646;28;20048;-84
2021/03/15 02:40:50;;;;;;;38.53;27.70;;;;;;;8.57;68.69;93260.84;4209598;28;20044;-85
2021/03/15 02:42:52;;;;;;;35.67;27.65;;;;;;;8.70;68.36;93280.28;4193525;28;20049;-83
2021/03/15 02:44:54;;;;;;;36.42;27.80;;;;;;;8.83;67.93;93272.59;4206460;28;20048;-71
2021/03/15 02:46:55;;;;;;;37.35;28.00;;;;;;;8.93;67.42;93267.91;4232006;28;20069;-71
2021/03/15 02:49:00;;;;;;;39.20;27.20;;;;;;;9.00;66.95;93271.38;4208381;28;20083;-71
2021/03/15 02:51:04;;;;;;;36.85;27.58;;;;;;;9.09;66.81;93277.31;4196377;28;20045;-71
2021/03/15 02:53:06;;;;;;;36.42;27.95;;;;;;;9.14;66.07;93266.31;4210641;28;20051;-72
2021/03/15 02:55:09;;;;;;;32.78;26.08;;;;;;;9.18;65.96;93272.78;4203028;28;20044;-71
2021/03/15 02:57:10;;;;;;;36.88;27.10;;;;;;;9.25;65.65;93271.06;4222603;27;20073;-71
2021/03/15 02:59:16;;;;;;;38.15;27.08;;;;;;;9.26;66.42;93256.97;4223477;27;20119;-70
2021/03/15 03:01:18;;;;;;;34.22;25.90;;;;;;;8.98;66.99;93242.03;4195219;28;20051;-71
2021/03/15 03:03:21;;;;;;;36.13;27.20;;;;;;;8.83;67.99;93256.94;4204438;28;20044;-85
2021/03/15 03:05:22;;;;;;;35.30;27.17;;;;;;;8.85;68.02;93254.16;4254632;27;20043;-85
2021/03/15 03:07:36;;;;;;;35.38;27.55;;;;;;;8.92;67.92;93260.25;4229197;28;20111;-83
2021/03/15 03:09:38;;;;;;;40.70;28.92;;;;;;;8.99;67.84;93250.66;4240719;28;20048;-83
2021/03/15 03:11:40;;;;;;;37.35;28.60;;;;;;;8.88;68.26;93253.78;4224581;28;20048;-84
2021/03/15 03:13:43;;;;;;;38.50;28.27;;;;;;;8.88;68.25;93251.97;4225307;28;20065;-85
2021/03/15 03:15:45;;;;;;;36.95;27.98;;;;;;;8.87;68.91;93252.16;4209068;28;20058;-84
2021/03/15 03:17:47;;;;;;;43.20;30.05;;;;;;;8.89;68.59;93245.75;4212928;28;20490;-86
2021/03/15 03:19:49;;;;;;;39.08;27.58;;;;;;;8.99;67.90;93248.88;4201553;28;20048;-84
2021/03/15 03:21:51;;;;;;;38.15;28.73;;;;;;;9.11;67.80;93249.19;4230949;28;20047;-71
2021/03/15 03:23:55;;;;;;;40.38;28.38;;;;;;;9.21;67.09;93241.06;4222035;27;20488;-71
2021/03/15 03:25:56;;;;;;;;;;;;;;;9.28;67.33;93243.75;4227115;28;20096;-71
2021/03/15 03:27:57;;;;;;;35.33;27.25;;;;;;;9.25;67.74;93244.94;4195625;28;20379;-71
2021/03/15 03:29:59;;;;;;;37.75;27.80;;;;;;;9.25;67.30;93238.88;4211884;28;20044;-70
2021/03/15 03:32:01;;;;;;;37.40;27.63;;;;;;;9.26;67.42;93245.72;4198059;28;20106;-71
2021/03/15 03:34:03;;;;;;;38.55;28.10;;;;;;;9.29;67.16;93245.34;4229483;28;20478;-71
2021/03/15 03:36:05;;;;;;;39.47;27.63;;;;;;;9.31;67.41;93246.78;4211309;28;20051;-83
2021/03/15 03:38:13;;;;;;;38.30;29.00;;;;;;;9.30;67.81;93239.94;4225205;28;20044;-85
2021/03/15 03:40:16;;;;;;;39.28;29.10;;;;;;;9.18;68.25;93228.34;4213395;28;20118;-85
2021/03/15 03:42:18;;;;;;;39.05;28.75;;;;;;;8.98;69.62;93230.78;4214500;28;20048;-83
2021/03/15 03:44:19;;;;;;;37.60;28.55;;;;;;;9.02;69.67;93229.41;4214737;28;20055;-82
2021/03/15 03:46:20;;;;;;;39.70;29.20;;;;;;;9.12;69.32;93213.41;4232073;28;20046;-83
2021/03/15 03:48:22;;;;;;;39.70;28.90;;;;;;;8.92;69.87;93208.00;4232007;28;20039;-83
2021/03/15 03:50:26;;;;;;;36.45;28.88;;;;;;;8.95;70.23;93221.53;4214100;28;20044;-86
2021/03/15 03:52:28;;;;;;;;;;;;;;;9.01;69.58;93212.13;4211006;28;20181;-84
2021/03/15 03:54:33;;;;;;;37.88;26.83;;;;;;;8.91;70.21;93194.16;4222069;28;19920;-84
2021/03/15 03:56:41;;;;;;;38.42;27.75;;;;;;;8.92;69.81;93213.22;4236505;27;20515;-84
2021/03/15 03:58:49;;;;;;;37.17;28.08;;;;;;;8.94;70.36;93214.66;4200825;28;20070;-85
2021/03/15 04:00:54;;;;;;;39.40;29.73;;;;;;;8.82;70.44;93200.50;4218066;28;20044;-84
2021/03/15 04:03:03;;;;;;;37.70;29.92;;;;;;;8.76;71.27;93182.94;4239126;27;20074;-83
2021/03/15 04:05:08;;;;;;;37.63;28.33;;;;;;;8.80;71.25;93192.84;4220548;28;20076;-83
2021/03/15 04:07:10;;;;;;;41.80;28.20;;;;;;;8.88;70.65;93191.09;4232587;28;20059;-84
2021/03/15 04:09:15;;;;;;;41.35;27.92;;;;;;;8.92;70.40;93187.91;4196890;28;20090;-86
2021/03/15 04:11:20;;;;;;;39.20;28.27;;;;;;;8.90;70.29;93179.47;4214168;28;20511;-71
2021/03/15 04:13:26;;;;;;;35.88;27.92;;;;;;;8.78;70.63;93181.78;4218467;28;20044;-71
2021/03/15 04:15:28;;;;;;;37.58;26.48;;;;;;;8.85;70.95;93176.59;4195068;28;20561;-71
2021/03/15 04:17:39;;;;;;;35.30;27.08;;;;;;;8.96;69.71;93172.69;4208140;28;20062;-71
2021/03/15 04:20:06;;;;;;;38.53;28.45;;;;;;;8.84;70.42;93167.19;4193069;28;20091;-70
2021/03/15 04:22:09;;;;;;;36.00;28.13;;;;;;;8.82;71.07;93171.78;4211425;28;20511;-71
2021/03/15 04:24:11;;;;;;;38.85;28.67;;;;;;;8.89;70.56;93177.84;4215433;28;20048;-71
2021/03/15 04:26:13;;;;;;;35.30;28.25;;;;;;;8.99;70.03;93187.97;4199450;28;20083;-72
2021/03/15 04:28:15;;;;;;;38.15;28.65;;;;;;;9.00;70.33;93179.16;4222147;28;20055;-73
2021/03/15 04:30:17;;;;;;;35.17;28.40;;;;;;;8.70;71.52;93168.81;4211401;28;20495;-71
2021/03/15 04:32:20;;;;;;;39.28;28.55;;;;;;;8.74;71.39;93174.50;4240481;27;20413;-70
2021/03/15 04:34:22;;;;;;;35.45;27.80;;;;;;;8.81;70.92;93167.53;4226576;28;20147;-72
2021/03/15 04:36:24;;;;;;;37.53;28.52;;;;;;;8.91;71.12;93162.00;4242437;27;20054;-70
2021/03/15 04:38:25;;;;;;;37.83;28.33;;;;;;;8.97;70.95;93167.28;4209393;28;20048;-69
2021/03/15 04:40:28;;;;;;;37.00;27.80;;;;;;;9.03;70.13;93157.88;4215609;28;20056;-71
2021/03/15 04:42:30;;;;;;;38.33;28.00;;;;;;;9.10;69.73;93165.78;4210097;28;20048;-69
2021/03/15 04:44:32;;;;;;;39.15;27.98;;;;;;;9.15;69.97;93155.59;4210854;28;20282;-71
2021/03/15 04:46:35;;;;;;;35.88;28.25;;;;;;;9.12;70.14;93153.34;4210470;28;20510;-70
2021/03/15 04:48:39;;;;;;;37.42;29.08;;;;;;;9.02;70.27;93146.63;4210253;28;20091;-70
2021/03/15 04:50:43;;;;;;;39.53;29.48;;;;;;;9.04;70.96;93148.28;4210175;28;20055;-70
2021/03/15 04:52:44;;;;;;;40.38;30.58;;;;;;;9.10;69.61;93156.16;4228935;28;20462;-69
2021/03/15 04:54:46;;;;;;;39.88;31.63;;;;;;;9.07;69.95;93143.47;4225196;28;20491;-71
2021/03/15 04:56:49;;;;;;;39.65;31.20;;;;;;;9.11;69.77;93144.69;4200033;28;20054;-71
2021/03/15 04:58:51;;;;;;;39.55;29.90;;;;;;;9.16;69.99;93158.03;4206989;28;20044;-71
2021/03/15 05:00:57;;;;;;;36.70;29.83;;;;;;;9.21;69.89;93155.66;4217961;28;20471;-71
2021/03/15 05:03:00;;;;;;;41.42;30.35;;;;;;;9.26;69.47;93146.44;4218498;28;20090;-72
2021/03/15 05:05:03;;;;;;;38.88;30.42;;;;;;;9.30;69.46;93145.06;4221089;28;20051;-71
2021/03/15 05:07:04;;;;;;;39.80;30.15;;;;;;;9.33;69.67;93148.09;4214076;28;20044;-73
2021/03/15 05:09:23;;;;;;;37.42;27.88;;;;;;;9.30;69.09;93147.69;4230616;27;20049;-70
2021/03/15 05:11:27;;;;;;;36.35;27.35;;;;;;;9.32;69.47;93148.28;4219512;28;20044;-72
2021/03/15 05:13:33;;;;;;;38.92;28.23;;;;;;;9.33;69.56;93148.09;4210232;28;20048;-72
2021/03/15 05:15:34;;;;;;;40.33;28.70;;;;;;;9.34;69.73;93148.91;4196441;28;20380;-72
2021/03/15 05:17:36;;;;;;;35.97;27.55;;;;;;;9.33;69.65;93150.69;4207399;28;20101;-72
2021/03/15 05:19:39;;;;;;;32.65;25.58;;;;;;;9.36;69.52;93144.31;4209615;28;20520;-70
2021/03/15 05:21:42;;;;;;;38.55;26.55;;;;;;;9.38;68.84;93143.13;4226194;28;20361;-72
2021/03/15 05:23:44;;;;;;;36.30;26.02;;;;;;;9.28;68.73;93145.25;4218631;28;20110;-71
2021/03/15 05:25:49;;;;;;;32.00;24.48;;;;;;;9.29;68.56;93148.66;4226434;28;20058;-71
2021/03/15 05:27:50;;;;;;;30.17;24.00;;;;;;;9.31;68.32;93141.44;4230105;27;20058;-73
2021/03/15 05:29:52;;;;;;;28.75;22.83;;;;;;;9.32;68.03;93143.06;4217158;28;20052;-71
2021/03/15 05:31:55;;;;;;;29.85;21.77;;;;;;;9.33;67.60;93148.09;4217417;28;20071;-70
2021/03/15 05:33:57;;;;;;;28.88;21.05;;;;;;;9.37;67.71;93151.13;4192525;28;20485;-70
2021/03/15 05:35:58;;;;;;;27.80;21.08;;;;;;;9.31;67.12;93147.47;4209946;28;20048;-71
2021/03/15 05:38:00;;;;;;;28.15;22.23;;;;;;;9.33;67.18;93144.66;4240787;27;20054;-71
2021/03/15 05:40:05;;;;;;;24.52;20.52;;;;;;;9.32;66.59;93136.03;4204067;28;20045;-72
2021/03/15 05:42:22;;;;;;;25.55;21.20;;;;;;;9.30;66.77;93134.59;4210062;28;20088;-72
2021/03/15 05:45:04;;;;;;;32.15;22.38;;;;;;;9.27;67.13;93117.50;4234815;27;20457;-73
2021/03/15 05:47:17;;;;;;;26.95;21.08;;;;;;;9.12;67.52;93114.97;4211223;28;20044;-86
2021/03/15 05:49:36;;;;;;;25.38;21.23;;;;;;;9.13;67.34;93121.81;4216347;28;20043;-85
2021/03/15 05:51:46;;;;;;;26.35;21.50;;;;;;;9.26;67.37;93133.38;4200135;28;20491;-87
2021/03/15 05:54:11;;;;;;;26.02;20.85;;;;;;;9.30;67.78;93135.41;4230907;28;20114;-86
2021/03/15 05:56:27;;;;;;;27.70;21.80;;;;;;;9.21;67.78;93118.25;4220623;28;20461;-84
2021/03/15 05:58:56;;;;;;;27.48;21.42;;;;;;;9.19;67.63;93131.50;4228456;27;20244;-71
2021/03/15 06:01:02;;;;;;;26.40;21.45;;;;;;;9.13;68.00;93136.69;4231934;27;20043;-70
2021/03/15 06:03:35;;;;;;;28.02;21.90;;;;;;;9.00;67.77;93135.56;4226525;27;20491;-72
2021/03/15 06:05:37;;;;;;;26.38;19.90;;;;;;;9.03;67.84;93131.75;4211862;28;20117;-75
2021/03/15 06:07:39;;;;;;;30.40;22.77;;;;;;;9.07;68.16;93138.22;4222312;28;20059;-71
2021/03/15 06:10:05;;;;;;;28.00;22.35;;;;;;;9.12;67.67;93142.88;4207407;28;20052;-72
2021/03/15 06:12:19;;;;;;;28.48;21.88;;;;;;;9.22;67.47;93133.72;4213043;28;20069;-72
2021/03/15 06:14:22;;;;;;;24.73;19.98;;;;;;;9.31;66.61;93134.41;4194593;28;21447;-71
2021/03/15 06:16:23;;;;;;;24.40;20.67;;;;;;;9.42;67.68;93127.84;4210114;28;20048;-72
2021/03/15 06:18:25;;;;;;;27.17;22.33;;;;;;;9.53;66.75;93139.59;4204785;28;20052;-71
2021/03/15 06:20:26;;;;;;;30.85;23.25;;;;;;;9.55;66.68;93140.19;4207065;28;20048;-72
2021/03/15 06:22:29;;;;;;;26.02;21.77;;;;;;;9.62;66.61;93139.25;4228449;27;20060;-71
2021/03/15 06:24:30;;;;;;;40.75;30.27;;;;;;;9.60;66.48;93137.84;4218175;28;20044;-70
2021/03/15 06:26:35;;;;;;;57.38;38.55;;;;;;;9.59;66.25;93129.19;4215338;28;20055;-71
2021/03/15 06:28:36;;;;;;;27.80;22.08;;;;;;;9.48;66.30;93129.69;4211858;28;20063;-73
2021/03/15 06:30:38;;;;;;;29.10;22.83;;;;;;;9.41;67.11;93139.31;4215548;28;20551;-71
2021/03/15 06:32:40;;;;;;;27.65;22.33;;;;;;;9.41;66.75;93123.63;4217989;28;20048;-71
2021/03/15 06:34:42;;;;;;;33.03;25.10;;;;;;;9.35;67.84;93125.19;4196462;28;20049;-72
2021/03/15 06:36:44;;;;;;;27.25;22.25;;;;;;;9.27;67.94;93125.34;4228824;28;20130;-73
2021/03/15 06:38:46;;;;;;;30.60;23.10;;;;;;;9.29;67.37;93127.75;4216550;28;20056;-73
2021/03/15 06:40:47;;;;;;;35.13;24.98;;;;;;;9.32;68.11;93136.03;4218975;28;20457;-72
2021/03/15 06:42:52;;;;;;;27.38;21.48;;;;;;;9.38;66.73;93126.63;4216213;28;20485;-72
2021/03/15 06:44:53;;;;;;;28.98;21.58;;;;;;;9.46;66.47;93125.66;4225606;28;20482;-71
2021/03/15 06:46:54;;;;;;;26.13;20.67;;;;;;;9.39;67.04;93123.81;4231031;28;20058;-72
2021/03/15 06:48:56;;;;;;;29.42;21.63;;;;;;;9.36;67.34;93126.81;4215200;27;20439;-71
2021/03/15 06:50:57;;;;;;;32.10;22.63;;;;;;;9.20;67.47;93121.84;4219376;28;20047;-71
2021/03/15 06:53:00;;;;;;;30.98;22.92;;;;;;;9.18;68.00;93132.53;4224112;28;20287;-73
2021/03/15 06:55:02;;;;;;;32.58;23.45;;;;;;;9.07;68.73;93121.75;4213244;28;20052;-73
2021/03/15 06:57:18;;;;;;;29.45;22.90;;;;;;;8.97;68.65;93116.84;4197647;28;20068;-72
2021/03/15 06:59:19;;;;;;;31.20;24.00;;;;;;;9.06;68.79;93122.78;4222487;28;20627;-72
2021/03/15 07:01:25;;;;;;;28.58;23.58;;;;;;;9.07;68.81;93121.75;4216736;28;20040;-74
2021/03/15 07:03:27;;;;;;;29.83;24.30;;;;;;;9.12;69.28;93119.38;4207883;28;20270;-71
2021/03/15 07:05:30;;;;;;;38.05;29.85;;;;;;;9.15;69.08;93121.63;4215617;28;20056;-73
2021/03/15 07:07:31;;;;;;;33.60;26.83;;;;;;;9.09;69.38;93117.16;4202562;28;20068;-71
2021/03/15 07:09:33;;;;;;;32.47;25.52;;;;;;;9.11;69.26;93115.16;4213646;28;20090;-72
2021/03/15 07:11:35;;;;;;;34.97;24.77;;;;;;;9.09;69.42;93117.16;4214679;28;20036;-73
2021/03/15 07:13:39;;;;;;;28.98;23.10;;;;;;;9.20;69.09;93106.19;4214225;28;20078;-71
2021/03/15 07:15:40;;;;;;;;;;;;;;;9.35;69.29;93104.28;4229518;28;20073;-72
2021/03/15 07:17:42;;;;;;;31.08;23.63;;;;;;;9.49;68.41;93104.38;4199124;28;19920;-71
2021/03/15 07:19:46;;;;;;;33.25;24.42;;;;;;;9.53;68.36;93101.19;4207803;28;20446;-72
2021/03/15 07:21:48;;;;;;;31.73;24.27;;;;;;;9.51;68.20;93107.63;4223974;27;20083;-70
2021/03/15 07:23:54;;;;;;;45.88;27.25;;;;;;;9.59;67.89;93104.84;4218809;28;20101;-72
2021/03/15 07:26:09;;;;;;;38.05;26.30;;;;;;;9.55;68.71;93090.53;4226542;28;20051;-73
2021/03/15 07:28:10;;;;;;;35.15;25.17;;;;;;;9.46;68.82;93089.06;4203031;28;20048;-72
2021/03/15 07:30:48;;;;;;;37.53;25.83;;;;;;;9.54;68.41;93091.53;4223267;28;20051;-73
2021/03/15 07:32:49;;;;;;;34.15;24.17;;;;;;;9.51;69.09;93087.50;4212250;27;20059;-73
2021/03/15 07:34:51;;;;;;;33.80;25.13;;;;;;;9.65;68.56;93083.16;4198344;28;20496;-71
2021/03/15 07:36:59;;;;;;;35.60;23.98;;;;;;;9.81;68.17;93072.38;4212896;28;20288;-72
2021/03/15 07:39:07;;;;;;;30.67;24.65;;;;;;;9.98;68.21;93067.63;4211401;28;20602;-73
2021/03/15 07:41:19;;;;;;;29.10;24.90;;;;;;;10.12;67.68;93076.34;4210274;28;20040;-71
2021/03/15 07:43:27;;;;;;;29.48;24.23;;;;;;;10.24;67.04;93076.59;4211358;28;20048;-73
2021/03/15 07:45:40;;;;;;;30.45;23.73;;;;;;;10.31;66.27;93068.78;4210902;28;20052;-70
2021/03/15 07:47:41;;;;;;;43.15;23.30;;;;;;;10.41;66.15;93071.81;4212407;28;20044;-72
2021/03/15 07:49:48;;;;;;;30.73;21.95;;;;;;;10.51;65.12;93077.47;4212010;28;20052;-72
2021/03/15 07:51:54;;;;;;;30.75;23.95;;;;;;;10.54;64.73;93061.38;4194425;28;20052;-71
2021/03/15 07:54:07;;;;;;;34.20;23.42;;;;;;;10.48;65.13;93062.19;4220362;28;20059;-84
2021/03/15 07:56:11;;;;;;;32.13;23.25;;;;;;;10.46;65.66;93058.94;4219170;28;20044;-87
2021/03/15 07:58:40;;;;;;;33.85;23.08;;;;;;;10.59;65.47;93058.97;4218252;28;20040;-89
2021/03/15 08:00:41;;;;;;;29.58;23.13;;;;;;;10.63;64.66;93064.63;4206431;28;20047;-85
2021/03/15 08:02:43;;;;;;;31.10;23.77;;;;;;;10.52;64.75;93058.16;4237805;28;20101;-86
2021/03/15 08:04:46;;;;;;;26.13;20.45;;;;;;;10.57;64.58;93047.09;4225170;28;20055;-87
2021/03/15 08:06:48;;;;;;;23.88;20.85;;;;;;;10.55;64.56;93038.63;4225624;28;20058;-87
2021/03/15 08:08:50;;;;;;;28.35;22.48;;;;;;;10.37;65.24;93034.75;4212430;28;20170;-72
2021/03/15 08:10:52;;;;;;;27.95;22.38;;;;;;;10.26;65.28;93035.31;4209583;28;20075;-72
2021/03/15 08:12:53;;;;;;;29.88;22.13;;;;;;;10.06;66.21;93030.00;4199435;28;20056;-72
2021/03/15 08:15:00;;;;;;;35.15;24.98;;;;;;;10.02;66.50;93037.47;4193518;28;20136;-72
2021/03/15 08:17:03;;;;;;;31.20;23.25;;;;;;;10.09;66.46;93032.25;4194501;28;20373;-72
2021/03/15 08:19:05;;;;;;;30.98;23.55;;;;;;;9.92;66.74;93038.84;4194101;28;20045;-73
2021/03/15 08:21:12;;;;;;;31.13;21.65;;;;;;;9.97;66.92;93033.81;4192607;28;20056;-72
2021/03/15 08:23:16;;;;;;;30.42;23.42;;;;;;;10.18;66.18;93027.66;4194164;28;20052;-72
2021/03/15 08:25:18;;;;;;;35.53;24.58;;;;;;;10.33;65.72;93033.56;4191233;28;20113;-71
2021/03/15 08:27:20;;;;;;;28.20;22.20;;;;;;;10.49;65.63;93029.75;4193925;28;20133;-70
2021/03/15 08:29:22;;;;;;;33.17;23.00;;;;;;;10.61;65.33;93025.53;4191662;28;20545;-73
2021/03/15 08:31:29;;;;;;;34.25;23.67;;;;;;;9.97;66.67;93028.59;4211135;28;20044;-73
2021/03/15 08:33:31;;;;;;;31.45;24.20;;;;;;;9.72;67.91;93021.25;4192782;28;20484;-73
2021/03/15 08:35:33;;;;;;;28.77;24.67;;;;;;;9.75;68.32;93017.44;4195433;28;20047;-72
2021/03/15 08:37:51;;;;;;;32.25;22.98;;;;;;;9.75;67.76;93020.84;4194812;28;20609;-73
2021/03/15 08:39:52;;;;;;;34.03;23.95;;;;;;;9.73;68.57;93017.63;4197573;28;20048;-71
2021/03/15 08:42:08;;;;;;;33.63;23.73;;;;;;;9.88;67.27;93012.25;4207589;28;20139;-71
2021/03/15 08:44:43;;;;;;;34.83;25.35;;;;;;;10.11;66.82;93014.56;4194413;28;20467;-73
2021/03/15 08:46:44;;;;;;;30.08;21.88;;;;;;;10.06;66.70;93001.22;4194617;28;20078;-73
2021/03/15 08:48:46;;;;;;;29.88;21.65;;;;;;;10.11;66.88;93003.25;4193740;28;20087;-72
2021/03/15 08:50:48;;;;;;;29.73;23.38;;;;;;;10.06;67.21;92998.63;4195644;28;20144;-72
2021/03/15 08:52:50;;;;;;;29.65;22.02;;;;;;;10.24;66.58;92992.84;4192197;28;20412;-71
2021/03/15 08:54:51;;;;;;;30.10;22.55;;;;;;;10.36;66.07;92993.06;4193671;28;20045;-73
2021/03/15 08:56:53;;;;;;;33.10;22.55;;;;;;;10.54;64.92;92982.84;4192258;28;20072;-73
2021/03/15 08:59:09;;;;;;;29.75;21.55;;;;;;;10.62;64.21;92990.47;4169878;28;20054;-75
2021/03/15 09:01:12;;;;;;;30.50;21.88;;;;;;;10.70;64.68;92980.81;4182713;28;20049;-74
2021/03/15 09:03:13;;;;;;;33.00;21.90;;;;;;;10.80;64.25;92982.03;4185554;28;20044;-73
2021/03/15 09:05:24;;;;;;;31.77;22.88;;;;;;;10.85;63.64;92976.19;4193635;28;20504;-87
2021/03/15 09:07:30;;;;;;;32.17;23.02;;;;;;;10.86;64.02;92968.13;4185784;28;20053;-86
2021/03/15 09:09:33;;;;;;;32.20;21.45;;;;;;;10.89;63.53;92959.06;4188176;28;20078;-86
2021/03/15 09:11:38;;;;;;;31.35;21.15;;;;;;;10.92;63.38;92953.38;4199352;28;20079;-84
2021/03/15 09:13:39;;;;;;;33.28;22.25;;;;;;;10.78;63.95;92950.00;4216704;28;20055;-85
2021/03/15 09:15:42;;;;;;;30.48;21.90;;;;;;;10.94;63.91;92950.56;4197473;28;20054;-74
2021/03/15 09:17:44;;;;;;;31.48;21.90;;;;;;;10.95;62.97;92941.69;4196525;28;20049;-74
2021/03/15 09:19:49;;;;;;;29.50;21.08;;;;;;;11.00;62.82;92939.28;4214311;28;20524;-71
2021/03/15 09:21:54;;;;;;;37.53;21.42;;;;;;;11.07;62.79;92934.81;4236510;27;20101;-73
2021/03/15 09:23:59;;;;;;;30.02;21.17;;;;;;;11.08;62.86;92931.22;4213917;28;20058;-73
2021/03/15 09:26:25;;;;;;;29.90;21.10;;;;;;;11.16;62.65;92930.97;4211578;28;20135;-70
2021/03/15 09:28:26;;;;;;;25.93;21.43;;;;;;;11.20;62.40;92920.88;4217353;28;20040;-74
2021/03/15 09:30:30;;;;;;;28.33;21.50;;;;;;;11.20;61.85;92923.50;4231338;27;20043;-72
2021/03/15 09:32:37;;;;;;;26.48;21.63;;;;;;;11.26;61.40;92923.47;4244321;27;20517;-72
2021/03/15 09:34:39;;;;;;;33.35;21.70;;;;;;;11.32;61.60;92914.00;4243652;27;20668;-73
2021/03/15 09:36:40;;;;;;;26.15;21.55;;;;;;;11.37;61.48;92921.25;4238488;27;20051;-73
2021/03/15 09:38:42;;;;;;;32.08;21.50;;;;;;;11.39;61.30;92909.53;4211156;28;20048;-86
2021/03/15 09:40:49;;;;;;;30.73;20.55;;;;;;;11.44;61.45;92914.97;4215772;28;20059;-88
2021/03/15 09:43:06;;;;;;;24.17;19.52;;;;;;;11.36;61.03;92902.09;4235177;28;20051;-85
2021/03/15 09:45:22;;;;;;;22.42;18.85;;;;;;;11.42;60.69;92908.28;4237527;28;20097;-87